Time;durP1;ratioP1;P1;durP2;ratioP2;P2;SDS_P1;SDS_P2;PMS_P1;PMS_P2;Temp;Humidity;BMP_temperature;BMP_pressure;BME280_temperature;BME280_humidity;BME280_pressure;Samples;Min_cycle;Max_cycle;Signal;HPM_P1;HPM_P2
2022/05/31 00:01:23;;;;;;;14.50;8.30;;;;;;;24.13;48.67;100666.22;106957;1284;62604;-84
2022/05/31 00:03:48;;;;;;;12.50;7.80;;;;;;;24.13;48.62;100668.19;107170;1283;61251;-81
2022/05/31 00:06:14;;;;;;;12.90;8.10;;;;;;;24.13;48.61;100664.59;107168;1284;61216;-79
2022/05/31 00:08:40;;;;;;;13.00;8.10;;;;;;;24.13;48.75;100667.31;106813;1283;61593;-82
2022/05/31 00:11:06;;;;;;;11.90;7.40;;;;;;;24.13;48.78;100669.13;106803;1286;61182;-81
2022/05/31 00:13:32;;;;;;;12.00;7.70;;;;;;;24.13;48.79;100671.79;106809;1284;61349;-82
2022/05/31 00:15:58;;;;;;;10.50;7.20;;;;;;;24.12;48.67;100668.79;106650;1284;61263;-79
2022/05/31 00:18:23;;;;;;;12.70;7.90;;;;;;;24.12;48.79;100673.10;106645;1286;61771;-81
2022/05/31 00:20:49;;;;;;;14.70;7.50;;;;;;;24.12;48.71;100674.02;107175;1284;61651;-81
2022/05/31 00:23:15;;;;;;;10.60;7.60;;;;;;;24.12;48.67;100673.84;106803;1284;61215;-80
2022/05/31 00:25:40;;;;;;;12.60;7.80;;;;;;;24.12;48.64;100672.59;106715;1283;61308;-80
2022/05/31 00:28:06;;;;;;;11.60;6.80;;;;;;;24.12;48.64;100673.66;106883;1284;61544;-84
2022/05/31 00:30:32;;;;;;;11.70;7.00;;;;;;;24.12;48.74;100673.48;106971;1284;61229;-78
2022/05/31 00:32:57;;;;;;;11.10;7.30;;;;;;;24.12;48.77;100668.30;106840;1284;61435;-81
2022/05/31 00:35:27;;;;;;;9.60;7.00;;;;;;;24.12;48.65;100669.55;106843;1284;61378;-82
2022/05/31 00:37:53;;;;;;;11.50;6.70;;;;;;;24.12;48.63;100667.73;106780;1284;74130;-82
2022/05/31 00:40:19;;;;;;;10.10;6.90;;;;;;;24.12;48.76;100667.22;106622;1284;61224;-85
2022/05/31 00:43:18;;;;;;;12.00;7.20;;;;;;;24.11;48.81;100665.09;106814;1284;61467;-83
2022/05/31 00:45:58;;;;;;;11.50;7.50;;;;;;;24.11;48.74;100666.00;106309;1289;72741;-83
2022/05/31 00:48:26;;;;;;;13.30;6.70;;;;;;;24.11;48.84;100671.95;106085;1290;74535;-81
2022/05/31 00:51:13;;;;;;;9.60;6.40;;;;;;;24.11;48.73;100675.34;106097;1290;61285;-81
2022/05/31 00:53:51;;;;;;;11.90;6.50;;;;;;;24.11;48.64;100673.23;106186;1290;61124;-81
2022/05/31 00:56:22;;;;;;;8.30;6.10;;;;;;;24.11;48.69;100675.37;106170;1290;72445;-82
2022/05/31 00:58:56;;;;;;;10.30;7.00;;;;;;;24.10;48.70;100676.13;106113;1290;75522;-82
2022/05/31 01:01:21;;;;;;;8.90;6.60;;;;;;;24.11;48.78;100683.64;106096;1290;61178;-86
2022/05/31 01:03:47;;;;;;;11.00;6.30;;;;;;;24.11;48.75;100684.55;106086;1290;61391;-81
2022/05/31 01:06:13;;;;;;;11.20;6.70;;;;;;;24.11;48.76;100682.40;106069;1290;61201;-82
2022/05/31 01:08:44;;;;;;;10.30;6.80;;;;;;;24.11;48.68;100683.85;106251;1290;61256;-84
2022/05/31 01:11:10;;;;;;;9.60;6.20;;;;;;;24.11;48.67;100684.02;106267;1289;61495;-82
2022/05/31 01:13:35;;;;;;;10.00;6.90;;;;;;;24.11;48.74;100684.02;106253;1290;61287;-81
2022/05/31 01:16:03;;;;;;;9.20;6.30;;;;;;;24.10;48.74;100685.13;106091;1290;61416;-84
2022/05/31 01:18:29;;;;;;;9.40;6.40;;;;;;;24.11;48.73;100684.77;106267;1289;61359;-82
2022/05/31 01:20:55;;;;;;;11.00;6.80;;;;;;;24.11;48.76;100687.63;106310;1290;60012;-82
2022/05/31 01:23:21;;;;;;;11.20;6.20;;;;;;;24.10;48.75;100687.82;106743;1283;61294;-82
2022/05/31 01:26:11;;;;;;;10.30;6.50;;;;;;;24.11;48.70;100689.41;106812;1284;61774;-83
2022/05/31 01:29:21;;;;;;;9.40;6.80;;;;;;;24.10;48.67;100689.47;107166;1283;74573;-81
2022/05/31 01:31:53;;;;;;;11.00;6.40;;;;;;;24.09;48.71;100688.65;106306;1289;61260;-83
2022/05/31 01:34:38;;;;;;;9.20;6.60;;;;;;;24.09;48.71;100688.45;106079;1289;61401;-82
2022/05/31 01:37:04;;;;;;;10.30;6.10;;;;;;;24.09;48.74;100694.41;106241;1289;73799;-83
2022/05/31 01:39:46;;;;;;;9.30;6.20;;;;;;;24.09;48.81;100698.02;105990;1291;61264;-80
2022/05/31 01:42:42;;;;;;;9.00;6.20;;;;;;;24.09;48.70;100699.61;106140;1289;61523;-81
2022/05/31 01:45:22;;;;;;;10.00;6.70;;;;;;;24.09;48.61;100698.58;106223;1289;61407;-83
2022/05/31 01:47:48;;;;;;;8.40;6.10;;;;;;;24.08;48.75;100698.26;106140;1290;73267;-83
2022/05/31 01:50:17;;;;;;;11.30;6.40;;;;;;;24.08;48.66;100698.45;106152;1290;61432;-82
2022/05/31 01:52:43;;;;;;;10.40;6.60;;;;;;;24.08;48.78;100698.27;106165;1290;61371;-82
2022/05/31 01:55:09;;;;;;;8.80;6.20;;;;;;;24.08;48.80;100702.38;106004;1289;61295;-84
2022/05/31 01:57:35;;;;;;;10.10;6.20;;;;;;;24.08;48.68;100707.21;105994;1290;61292;-83
2022/05/31 02:00:04;;;;;;;11.30;6.50;;;;;;;24.08;48.71;100710.12;106291;1289;61409;-82
2022/05/31 02:02:30;;;;;;;8.60;6.40;;;;;;;24.08;48.64;100714.78;106247;1289;61183;-81
2022/05/31 02:04:56;;;;;;;9.90;6.30;;;;;;;24.08;48.72;100722.16;106319;1289;61398;-82
2022/05/31 02:07:23;;;;;;;10.00;7.10;;;;;;;24.07;48.77;100724.73;106188;1288;59263;-83
2022/05/31 02:09:50;;;;;;;9.70;6.30;;;;;;;24.08;48.68;100725.59;106884;1285;61115;-81
2022/05/31 02:12:16;;;;;;;11.70;6.60;;;;;;;24.08;48.68;100723.09;107078;1284;61207;-81
2022/05/31 02:14:42;;;;;;;9.50;6.60;;;;;;;24.07;48.72;100713.97;106849;1284;61243;-80
2022/05/31 02:17:08;;;;;;;12.20;7.30;;;;;;;24.08;48.74;100717.36;106865;1283;61145;-80
2022/05/31 02:19:33;;;;;;;10.70;6.90;;;;;;;24.07;48.73;100717.41;106842;1284;61177;-82
2022/05/31 02:22:04;;;;;;;10.30;7.00;;;;;;;24.07;48.67;100723.86;107206;1283;61242;-81
2022/05/31 02:24:30;;;;;;;10.10;6.90;;;;;;;24.07;48.76;100728.17;106888;1284;61131;-79
2022/05/31 02:26:56;;;;;;;11.40;6.90;;;;;;;24.07;48.67;100730.36;106823;1284;61257;-80
2022/05/31 02:29:24;;;;;;;10.60;7.30;;;;;;;24.07;48.69;100732.17;106822;1286;62058;-84
2022/05/31 02:31:50;;;;;;;12.30;6.90;;;;;;;24.07;48.66;100730.02;106865;1283;61070;-82
2022/05/31 02:34:20;;;;;;;10.70;7.10;;;;;;;24.07;48.71;100734.89;107092;1284;61742;-83
2022/05/31 02:36:46;;;;;;;9.50;6.90;;;;;;;24.07;48.69;100738.83;106860;1284;73831;-84
2022/05/31 02:39:12;;;;;;;10.10;7.10;;;;;;;24.06;48.72;100740.11;106826;1284;74500;-81
2022/05/31 02:41:38;;;;;;;12.50;7.30;;;;;;;24.07;48.67;100741.34;106749;1283;61332;-81
2022/05/31 02:44:04;;;;;;;8.90;6.60;;;;;;;24.06;48.73;100736.19;106849;1284;61456;-81
2022/05/31 02:46:30;;;;;;;11.00;7.30;;;;;;;24.06;48.72;100739.26;106661;1283;59406;-81
2022/05/31 02:48:55;;;;;;;9.80;7.20;;;;;;;24.06;48.78;100742.11;106878;1283;61278;-82
2022/05/31 02:51:21;;;;;;;9.90;7.30;;;;;;;24.06;48.71;100742.84;106719;1283;61316;-79
2022/05/31 02:53:47;;;;;;;10.80;6.70;;;;;;;24.06;48.75;100743.54;106892;1283;61243;-84
2022/05/31 02:56:13;;;;;;;11.30;7.40;;;;;;;24.05;48.67;100744.34;106705;1283;61827;-81
2022/05/31 02:58:41;;;;;;;9.60;7.00;;;;;;;24.06;48.73;100748.95;106847;1284;72868;-82
2022/05/31 03:01:23;;;;;;;9.30;7.50;;;;;;;24.06;48.77;100756.31;106871;1282;61323;-82
2022/05/31 03:03:49;;;;;;;12.10;7.70;;;;;;;24.06;48.74;100757.41;106914;1284;61348;-81
2022/05/31 03:06:15;;;;;;;10.60;7.30;;;;;;;24.05;48.74;100756.91;107156;1282;61253;-80
2022/05/31 03:08:41;;;;;;;10.20;6.30;;;;;;;24.06;48.70;100761.40;107189;1283;80426;-82
2022/05/31 03:11:09;;;;;;;10.70;7.20;;;;;;;24.06;48.69;100763.14;106850;1284;59334;-81
2022/05/31 03:13:34;;;;;;;10.10;6.90;;;;;;;24.06;48.71;100770.70;106629;1284;61316;-79
2022/05/31 03:16:01;;;;;;;11.70;7.40;;;;;;;24.06;48.79;100773.06;106612;1284;61496;-83
2022/05/31 03:18:28;;;;;;;12.50;7.20;;;;;;;24.06;48.68;100776.23;106836;1284;61653;-82
2022/05/31 03:20:56;;;;;;;9.90;6.90;;;;;;;24.06;48.69;100774.46;107174;1283;61289;-85
2022/05/31 03:23:24;;;;;;;11.10;7.90;;;;;;;24.06;48.72;100775.02;107165;1283;60413;-81
2022/05/31 03:25:50;;;;;;;11.10;7.70;;;;;;;24.05;48.78;100773.09;107138;1282;61276;-80
2022/05/31 03:28:16;;;;;;;13.20;8.30;;;;;;;24.05;48.68;100773.66;106881;1283;61333;-82
2022/05/31 03:30:41;;;;;;;13.60;8.50;;;;;;;24.04;48.77;100778.05;106877;1283;61289;-82
2022/05/31 03:33:08;;;;;;;15.60;8.30;;;;;;;24.04;48.81;100783.30;106882;1283;61129;-85
2022/05/31 03:35:34;;;;;;;10.40;7.30;;;;;;;24.04;48.81;100785.09;106850;1283;61264;-83
2022/05/31 03:37:59;;;;;;;10.20;7.20;;;;;;;24.04;48.82;100782.25;106829;1283;61247;-82
2022/05/31 03:43:16;;;;;;;11.10;6.90;;;;;;;24.02;48.76;100787.09;106567;1283;75678;-83
2022/05/31 03:45:42;;;;;;;10.50;6.30;;;;;;;24.02;48.79;100790.67;106898;1283;61366;-81
2022/05/31 03:48:09;;;;;;;10.20;6.70;;;;;;;24.01;48.68;100793.98;106860;1283;61177;-85
2022/05/31 03:50:35;;;;;;;12.80;7.00;;;;;;;24.01;48.73;100795.61;106862;1283;61143;-83
2022/05/31 03:53:01;;;;;;;13.10;6.80;;;;;;;24.00;48.81;100799.59;106882;1284;61273;-83
2022/05/31 03:55:27;;;;;;;11.00;6.80;;;;;;;24.00;48.83;100801.41;106793;1284;61201;-81
2022/05/31 03:57:53;;;;;;;11.70;6.90;;;;;;;24.00;48.76;100807.70;106847;1284;61336;-82
2022/05/31 04:00:19;;;;;;;11.50;6.60;;;;;;;24.00;48.84;100803.23;106799;1283;61279;-82
2022/05/31 04:02:45;;;;;;;12.90;6.80;;;;;;;23.99;48.83;100799.72;106588;1283;72514;-83
2022/05/31 04:05:12;;;;;;;19.60;7.10;;;;;;;23.99;48.84;100801.68;106629;1283;61310;-81
2022/05/31 04:07:38;;;;;;;20.90;7.40;;;;;;;23.99;48.82;100800.57;106801;1283;61910;-83
2022/05/31 04:10:04;;;;;;;17.70;6.80;;;;;;;23.99;48.66;100806.33;106849;1283;61315;-84
2022/05/31 04:12:34;;;;;;;14.30;6.30;;;;;;;24.00;48.73;100810.81;106761;1284;61340;-81
2022/05/31 04:14:59;;;;;;;16.40;7.20;;;;;;;24.00;48.65;100812.04;106849;1283;75354;-83
2022/05/31 04:17:25;;;;;;;16.00;6.50;;;;;;;24.00;48.73;100809.20;106879;1283;61345;-82
2022/05/31 04:19:51;;;;;;;17.80;6.30;;;;;;;24.00;48.60;100807.71;106243;1283;61375;-81
2022/05/31 04:22:16;;;;;;;15.00;6.70;;;;;;;24.00;48.65;100806.83;106276;1283;61281;-81
2022/05/31 04:24:42;;;;;;;19.50;7.20;;;;;;;24.01;48.66;100808.92;106544;1283;61290;-81
2022/05/31 04:27:08;;;;;;;14.70;7.10;;;;;;;24.01;48.63;100811.02;106457;1283;61278;-83
2022/05/31 04:29:34;;;;;;;14.40;6.90;;;;;;;24.02;48.52;100811.13;106521;1283;61741;-83
2022/05/31 04:32:00;;;;;;;12.10;6.70;;;;;;;24.02;48.53;100811.64;106486;1284;61125;-82
2022/05/31 04:34:25;;;;;;;13.00;6.30;;;;;;;24.03;48.62;100817.48;106583;1283;61687;-81
2022/05/31 04:36:51;;;;;;;13.10;6.30;;;;;;;24.05;48.54;100820.26;106530;1283;61263;-80
2022/05/31 04:39:17;;;;;;;13.80;6.70;;;;;;;24.05;48.50;100820.23;106614;1283;61297;-80
2022/05/31 04:41:42;;;;;;;14.00;6.30;;;;;;;24.06;48.56;100820.70;106448;1283;62076;-80
2022/05/31 04:44:08;;;;;;;14.50;7.50;;;;;;;24.06;48.54;100814.56;106238;1283;61296;-80
2022/05/31 04:46:35;;;;;;;19.10;7.90;;;;;;;24.06;48.53;100816.58;106628;1282;61278;-79
2022/05/31 04:49:02;;;;;;;9.60;6.80;;;;;;;24.05;48.44;100819.52;106839;1284;74559;-81
2022/05/31 04:51:29;;;;;;;13.10;7.20;;;;;;;24.05;48.56;100813.70;106034;1283;61267;-81
2022/05/31 04:53:54;;;;;;;21.60;7.80;;;;;;;24.06;48.54;100816.38;106133;1283;61460;-80
2022/05/31 04:56:20;;;;;;;17.40;8.20;;;;;;;24.05;48.70;100818.27;106409;1283;61399;-81
2022/05/31 04:58:46;;;;;;;15.40;7.90;;;;;;;24.04;48.83;100820.31;106488;1282;61307;-79
2022/05/31 05:01:12;;;;;;;12.30;7.40;;;;;;;24.02;48.89;100817.04;106220;1283;61924;-80
2022/05/31 05:03:38;;;;;;;16.40;8.00;;;;;;;24.01;49.00;100816.96;106072;1283;61224;-80
2022/05/31 05:06:05;;;;;;;14.50;7.40;;;;;;;24.01;49.00;100820.38;105949;1284;61132;-80
2022/05/31 05:08:32;;;;;;;20.60;8.30;;;;;;;24.01;49.07;100818.27;105998;1283;61269;-80
2022/05/31 05:11:02;;;;;;;13.70;7.70;;;;;;;24.02;49.28;100823.39;105870;1284;61223;-79
2022/05/31 05:13:28;;;;;;;16.00;7.00;;;;;;;24.04;49.15;100829.85;106078;1283;61933;-80
2022/05/31 05:15:55;;;;;;;12.80;7.10;;;;;;;24.06;49.10;100833.61;106256;1283;61172;-80
2022/05/31 05:18:21;;;;;;;15.50;7.00;;;;;;;24.09;49.13;100836.77;106066;1283;61411;-79
2022/05/31 05:20:46;;;;;;;17.50;7.70;;;;;;;24.12;49.35;100838.89;105886;1283;61272;-79
2022/05/31 05:23:12;;;;;;;24.10;7.80;;;;;;;24.15;49.27;100837.23;106186;1283;61204;-79
2022/05/31 05:25:38;;;;;;;15.70;7.50;;;;;;;24.17;49.30;100842.79;105926;1283;61368;-79
2022/05/31 05:30:38;;;;;;;13.00;6.90;;;;;;;24.20;49.53;100844.52;106094;1283;61373;-81
2022/05/31 05:30:49;;;;;;;20.00;7.70;;;;;;;24.22;49.57;100845.56;106074;1283;61324;-79
2022/05/31 05:33:15;;;;;;;25.50;7.80;;;;;;;24.23;49.56;100849.09;106123;1283;61320;-79
2022/05/31 05:35:41;;;;;;;22.40;7.80;;;;;;;24.25;49.80;100851.63;106106;1283;61296;-80
2022/05/31 05:38:09;;;;;;;17.90;8.00;;;;;;;24.27;49.96;100849.48;106237;1283;61307;-80
2022/05/31 05:40:35;;;;;;;15.80;8.40;;;;;;;24.29;49.96;100851.31;105998;1284;61288;-79
2022/05/31 05:43:00;;;;;;;19.30;8.20;;;;;;;24.29;50.11;100848.83;106191;1283;61295;-78
2022/05/31 05:45:26;;;;;;;19.20;8.50;;;;;;;24.30;50.05;100853.20;105830;1283;61329;-79
2022/05/31 05:47:52;;;;;;;21.00;9.40;;;;;;;24.31;50.16;100855.27;105869;1283;63769;-79
2022/05/31 05:50:17;;;;;;;20.00;8.60;;;;;;;24.33;50.23;100850.59;106077;1283;61269;-79
2022/05/31 05:52:49;;;;;;;17.50;8.50;;;;;;;24.36;50.35;100850.02;105903;1283;61091;-81
2022/05/31 05:55:14;;;;;;;17.20;8.30;;;;;;;24.37;50.63;100852.58;106133;1283;63065;-81
2022/05/31 05:57:41;;;;;;;19.90;8.40;;;;;;;24.38;50.64;100855.23;105823;1282;61676;-80
2022/05/31 06:00:08;;;;;;;17.80;7.90;;;;;;;24.38;50.82;100854.83;106041;1282;61364;-79
2022/05/31 06:02:33;;;;;;;19.60;8.90;;;;;;;24.40;50.76;100855.58;105959;1284;61299;-80
2022/05/31 06:05:27;;;;;;;21.60;8.50;;;;;;;24.40;50.81;100853.77;105899;1283;61251;-81
2022/05/31 06:08:00;;;;;;;19.40;7.80;;;;;;;24.41;50.82;100856.39;106180;1283;73123;-82
2022/05/31 06:10:28;;;;;;;14.40;8.50;;;;;;;24.41;50.83;100858.20;105964;1283;73119;-80
2022/05/31 06:13:04;;;;;;;17.50;7.90;;;;;;;24.39;50.84;100856.95;107438;1283;60126;-79
2022/05/31 06:15:32;;;;;;;13.60;8.60;;;;;;;24.40;50.88;100853.63;106169;1283;298527;-79
2022/05/31 06:17:58;;;;;;;21.00;8.60;;;;;;;24.41;50.95;100853.49;106374;1284;72041;-80
2022/05/31 06:20:23;;;;;;;23.90;9.00;;;;;;;24.43;51.08;100852.99;106061;1283;63395;-79
2022/05/31 06:22:49;;;;;;;20.70;8.00;;;;;;;24.45;51.21;100849.95;106117;1283;61416;-80
2022/05/31 06:25:15;;;;;;;24.90;7.50;;;;;;;24.48;51.39;100848.09;106002;1283;61412;-79
2022/05/31 06:27:41;;;;;;;18.30;6.80;;;;;;;24.54;51.65;100852.48;105957;1283;61184;-80
2022/05/31 06:30:08;;;;;;;16.90;7.40;;;;;;;24.59;51.51;100853.62;105979;1284;61378;-80
2022/05/31 06:32:34;;;;;;;13.30;7.30;;;;;;;24.64;51.51;100857.05;106430;1282;61276;-80
2022/05/31 06:34:59;;;;;;;12.70;7.30;;;;;;;24.65;51.16;100856.77;105716;1286;61250;-82
2022/05/31 06:37:29;;;;;;;11.00;7.00;;;;;;;24.64;50.80;100855.59;105826;1283;61853;-82
2022/05/31 06:39:54;;;;;;;10.00;6.50;;;;;;;24.63;50.61;100855.69;105813;1283;61292;-79
2022/05/31 06:42:20;;;;;;;12.10;6.70;;;;;;;24.61;50.31;100851.29;105872;1283;61274;-80
2022/05/31 06:44:45;;;;;;;12.60;7.10;;;;;;;24.61;49.98;100846.65;105772;1283;61768;-81
2022/05/31 06:47:12;;;;;;;18.90;7.30;;;;;;;24.62;49.90;100847.10;105858;1283;61346;-79
2022/05/31 06:49:38;;;;;;;22.30;7.40;;;;;;;24.65;49.88;100846.17;105727;1284;73668;-80
2022/05/31 06:57:44;;;;;;;17.90;6.60;;;;;;;24.80;50.83;100837.13;105257;1283;61285;-81
2022/05/31 07:00:12;;;;;;;15.30;7.50;;;;;;;24.82;50.97;100839.29;105450;1283;72799;-79
2022/05/31 07:02:38;;;;;;;22.10;7.40;;;;;;;24.83;50.91;100839.21;107222;1283;73783;-80
2022/05/31 07:05:04;;;;;;;16.50;6.90;;;;;;;24.83;51.05;100837.99;107161;1284;59207;-80
2022/05/31 07:07:30;;;;;;;13.20;6.70;;;;;;;24.83;51.06;100842.49;107259;1282;58945;-81
2022/05/31 07:09:56;;;;;;;19.90;7.40;;;;;;;24.82;51.12;100840.55;107324;1284;59599;-80
2022/05/31 07:12:22;;;;;;;16.20;7.70;;;;;;;24.81;50.99;100836.84;107434;1282;59689;-80
2022/05/31 07:14:48;;;;;;;17.10;7.70;;;;;;;24.79;50.90;100842.75;107359;1283;59458;-81
2022/05/31 07:17:14;;;;;;;20.10;8.20;;;;;;;24.80;50.77;100843.10;107197;1283;59143;-81
2022/05/31 07:19:40;;;;;;;12.60;7.40;;;;;;;24.80;50.94;100847.18;107302;1283;59666;-81
2022/05/31 07:22:05;;;;;;;12.90;7.30;;;;;;;24.79;50.66;100849.79;107393;1283;64891;-81
2022/05/31 07:24:31;;;;;;;14.90;7.60;;;;;;;24.80;50.47;100849.01;107407;1282;59605;-81
2022/05/31 07:26:57;;;;;;;12.40;7.50;;;;;;;24.78;50.02;100847.89;107285;1284;59278;-81
2022/05/31 07:29:23;;;;;;;15.00;7.80;;;;;;;24.79;49.76;100844.95;107527;1282;59245;-82
2022/05/31 07:31:49;;;;;;;15.80;8.10;;;;;;;24.80;49.48;100843.67;106807;1283;61289;-81
2022/05/31 07:34:15;;;;;;;13.10;8.00;;;;;;;24.80;49.47;100844.49;105666;1285;59841;-80
2022/05/31 07:36:42;;;;;;;14.40;7.60;;;;;;;24.81;49.22;100842.84;105663;1283;61230;-81
2022/05/31 07:39:18;;;;;;;20.40;8.60;;;;;;;24.79;49.20;100841.22;105431;1285;61332;-80
2022/05/31 07:41:45;;;;;;;14.30;8.40;;;;;;;24.77;49.47;100840.58;105279;1283;73048;-80
2022/05/31 07:44:11;;;;;;;22.50;8.50;;;;;;;24.82;49.79;100840.89;105786;1283;74813;-80
2022/05/31 07:46:38;;;;;;;19.50;8.10;;;;;;;24.87;49.77;100840.69;105811;1283;61315;-80
2022/05/31 07:49:04;;;;;;;20.90;9.10;;;;;;;24.88;49.82;100840.02;105540;1283;61290;-81
2022/05/31 07:51:29;;;;;;;18.10;8.20;;;;;;;24.86;49.99;100838.02;105735;1283;61334;-80
2022/05/31 07:53:55;;;;;;;20.50;8.70;;;;;;;24.87;49.90;100837.98;105922;1283;61310;-81
2022/05/31 07:56:21;;;;;;;18.10;8.70;;;;;;;24.87;49.91;100841.88;105627;1285;61255;-80
2022/05/31 07:58:46;;;;;;;19.50;8.80;;;;;;;24.87;49.89;100841.31;105278;1286;63391;-80
2022/05/31 08:01:14;;;;;;;19.90;9.00;;;;;;;24.88;49.79;100842.40;105860;1283;62063;-80
2022/05/31 08:03:39;;;;;;;20.80;8.80;;;;;;;24.88;49.81;100843.23;105781;1283;73727;-81
2022/05/31 08:06:10;;;;;;;19.70;10.00;;;;;;;24.88;49.90;100847.55;105768;1283;61238;-80
2022/05/31 08:08:35;;;;;;;16.40;9.30;;;;;;;24.88;50.02;100853.00;105764;1286;61218;-80
2022/05/31 08:11:03;;;;;;;22.80;9.40;;;;;;;24.86;50.26;100848.84;105657;1283;61556;-81
2022/05/31 08:13:29;;;;;;;18.30;8.60;;;;;;;24.85;50.32;100851.26;105762;1283;73804;-79
2022/05/31 08:15:59;;;;;;;18.80;9.20;;;;;;;24.85;50.40;100852.75;105791;1283;61325;-80
2022/05/31 08:18:24;;;;;;;19.70;9.90;;;;;;;24.83;50.35;100851.04;107318;1283;60228;-80
2022/05/31 08:20:50;;;;;;;23.90;9.50;;;;;;;24.83;50.24;100847.83;107436;1282;59546;-79
2022/05/31 08:23:15;;;;;;;17.90;9.50;;;;;;;24.84;50.30;100841.98;107610;1282;59369;-80
2022/05/31 08:25:41;;;;;;;19.90;9.30;;;;;;;24.86;50.49;100849.73;107576;1282;59865;-79
2022/05/31 08:28:07;;;;;;;14.30;9.00;;;;;;;24.88;50.39;100845.98;107447;1282;59212;-79
2022/05/31 08:30:33;;;;;;;18.00;9.30;;;;;;;24.89;50.41;100845.68;107375;1283;59433;-80
2022/05/31 08:32:58;;;;;;;18.80;9.20;;;;;;;24.91;50.36;100840.14;107595;1281;59499;-81
2022/05/31 08:35:25;;;;;;;20.10;10.30;;;;;;;24.92;50.37;100840.21;107554;1280;59173;-80
2022/05/31 08:37:51;;;;;;;20.00;10.10;;;;;;;24.93;50.33;100838.33;107598;1282;59673;-80
2022/05/31 08:40:17;;;;;;;20.20;9.70;;;;;;;24.94;50.06;100836.58;107575;1282;59411;-80
2022/05/31 08:42:50;;;;;;;20.80;9.80;;;;;;;24.96;49.69;100838.98;107317;1284;59265;-80
2022/05/31 08:45:45;;;;;;;15.90;10.20;;;;;;;24.99;49.76;100839.30;107183;1283;72166;-80
2022/05/31 08:48:30;;;;;;;20.40;11.00;;;;;;;24.99;49.57;100840.87;107566;1282;66973;-80
2022/05/31 08:57:08;;;;;;;17.10;10.40;;;;;;;25.01;49.46;100838.73;106535;1290;65096;-80
2022/05/31 08:59:53;;;;;;;17.70;10.50;;;;;;;25.02;49.42;100837.89;107109;1283;74518;-80
2022/05/31 09:02:31;;;;;;;18.80;10.20;;;;;;;25.03;49.40;100834.07;107422;1283;59546;-81
2022/05/31 09:05:24;;;;;;;22.30;10.40;;;;;;;25.05;49.60;100834.78;107407;1283;58975;-81
2022/05/31 09:07:52;;;;;;;22.60;10.80;;;;;;;25.07;49.70;100837.27;106665;1284;63824;-80
2022/05/31 09:10:24;;;;;;;23.40;10.50;;;;;;;25.10;49.90;100841.35;105787;1283;75487;-80
2022/05/31 09:12:56;;;;;;;20.40;10.80;;;;;;;25.12;49.88;100844.64;106123;1283;61069;-80
2022/05/31 09:15:27;;;;;;;16.30;10.10;;;;;;;25.10;49.75;100843.16;105723;1283;61372;-81
2022/05/31 09:18:09;;;;;;;20.20;10.00;;;;;;;25.07;49.78;100845.20;107434;1284;71480;-81
2022/05/31 09:20:47;;;;;;;24.30;11.00;;;;;;;25.06;49.86;100846.95;107400;1283;76054;-81
2022/05/31 09:23:19;;;;;;;15.70;11.30;;;;;;;25.05;49.79;100843.06;107371;1282;60063;-80
2022/05/31 09:25:44;;;;;;;19.00;11.50;;;;;;;25.05;49.52;100843.24;106195;1283;61435;-80
2022/05/31 09:28:28;;;;;;;26.20;11.20;;;;;;;25.04;49.38;100840.21;106669;1283;59490;-82
2022/05/31 09:30:53;;;;;;;24.10;11.20;;;;;;;25.04;49.36;100847.97;106470;1283;74618;-82
2022/05/31 09:33:28;;;;;;;22.50;11.10;;;;;;;25.03;49.15;100843.02;106245;1281;61378;-80
2022/05/31 09:35:54;;;;;;;22.60;11.50;;;;;;;25.02;49.06;100840.40;106814;1283;61943;-81
2022/05/31 09:38:48;;;;;;;22.60;11.20;;;;;;;25.03;48.90;100844.89;106453;1283;61333;-79
2022/05/31 09:41:21;;;;;;;20.90;10.90;;;;;;;25.02;49.20;100835.38;106365;1284;74485;-80
2022/05/31 09:44:20;;;;;;;23.00;11.20;;;;;;;25.03;49.43;100835.86;106265;1283;61394;-81
2022/05/31 09:46:56;;;;;;;17.60;11.90;;;;;;;25.05;49.42;100836.71;106014;1283;61535;-80
2022/05/31 09:49:33;;;;;;;18.00;11.80;;;;;;;25.06;49.33;100834.16;107471;1284;72652;-80
2022/05/31 09:51:58;;;;;;;20.10;12.00;;;;;;;25.05;49.46;100836.76;105831;1284;75884;-78
2022/05/31 09:57:23;;;;;;;21.10;11.50;;;;;;;25.09;49.69;100835.63;106029;1282;61693;-80
2022/05/31 09:59:50;;;;;;;29.00;12.10;;;;;;;25.10;49.52;100833.81;106666;1284;72528;-79
2022/05/31 10:02:28;;;;;;;37.00;13.20;;;;;;;25.09;49.64;100829.91;106381;1283;75656;-80
2022/05/31 10:05:20;;;;;;;22.80;13.00;;;;;;;25.09;49.54;100831.34;106888;1283;61244;-81
2022/05/31 10:07:46;;;;;;;17.10;12.80;;;;;;;25.07;49.74;100830.11;106622;1284;61088;-81
2022/05/31 10:10:16;;;;;;;22.00;12.10;;;;;;;25.05;49.56;100833.46;106681;1283;61148;-80
2022/05/31 10:12:52;;;;;;;18.70;13.00;;;;;;;25.04;49.62;100836.31;106676;1284;75721;-80
2022/05/31 10:15:37;;;;;;;16.40;11.20;;;;;;;25.02;49.46;100832.86;106430;1283;61364;-79
2022/05/31 10:18:05;;;;;;;21.50;12.20;;;;;;;25.01;49.47;100834.40;106644;1282;61158;-80
2022/05/31 10:20:31;;;;;;;19.60;12.50;;;;;;;25.00;49.41;100833.73;106429;1283;73543;-80
2022/05/31 10:22:59;;;;;;;20.40;11.90;;;;;;;24.99;49.45;100833.14;106317;1283;74809;-79
2022/05/31 10:25:34;;;;;;;19.60;12.00;;;;;;;24.98;49.49;100831.27;107495;1283;61208;-80
2022/05/31 10:28:02;;;;;;;23.20;13.10;;;;;;;24.96;49.57;100827.45;106832;1283;60195;-79
2022/05/31 10:30:27;;;;;;;18.70;12.50;;;;;;;24.97;49.50;100826.52;106337;1283;73445;-80
2022/05/31 10:33:03;;;;;;;20.20;12.70;;;;;;;24.96;49.60;100824.08;106477;1283;61249;-81
2022/05/31 10:35:33;;;;;;;22.50;11.80;;;;;;;24.95;49.55;100817.30;106416;1283;61559;-80
2022/05/31 10:38:09;;;;;;;22.90;12.70;;;;;;;24.94;49.68;100816.85;106489;1283;61611;-81
2022/05/31 10:40:56;;;;;;;16.70;11.90;;;;;;;24.93;49.70;100813.46;106001;1283;72807;-80
2022/05/31 10:43:43;;;;;;;19.10;12.60;;;;;;;24.94;49.49;100812.30;105861;1284;74755;-79
2022/05/31 10:46:21;;;;;;;27.90;13.40;;;;;;;24.96;49.58;100812.20;107485;1283;60331;-80
2022/05/31 10:48:48;;;;;;;18.90;12.70;;;;;;;24.97;49.61;100806.15;107746;1282;59263;-80
2022/05/31 10:51:18;;;;;;;19.90;12.80;;;;;;;24.98;49.61;100803.20;107463;1284;63903;-80
2022/05/31 10:54:07;;;;;;;19.90;12.80;;;;;;;24.97;49.54;100801.23;107498;1283;66003;-80
2022/05/31 10:56:58;;;;;;;23.10;11.70;;;;;;;24.98;49.48;100802.12;107607;1282;58995;-80
2022/05/31 10:59:44;;;;;;;22.30;12.70;;;;;;;24.99;49.38;100801.78;107534;1282;60666;-81
2022/05/31 11:02:21;;;;;;;26.60;12.30;;;;;;;25.01;49.18;100798.77;107698;1283;65306;-80
2022/05/31 11:05:14;;;;;;;23.10;12.70;;;;;;;25.05;49.16;100794.65;107124;1283;67214;-79
2022/05/31 11:14:30;;;;;;;20.30;12.10;;;;;;;25.11;48.74;100790.45;106658;1283;73565;-79
2022/05/31 11:17:00;;;;;;;17.80;11.80;;;;;;;25.14;48.62;100782.88;106506;1283;72442;-80
2022/05/31 11:19:39;;;;;;;17.30;11.20;;;;;;;25.14;48.55;100784.33;106415;1284;60323;-79
2022/05/31 11:22:16;;;;;;;20.50;12.20;;;;;;;25.14;48.56;100782.67;106524;1283;61423;-80
2022/05/31 11:24:47;;;;;;;18.00;12.10;;;;;;;25.15;48.60;100780.63;107690;1282;73807;-79
2022/05/31 11:28:06;;;;;;;16.10;11.80;;;;;;;25.17;48.48;100779.21;107550;1282;75640;-81
2022/05/31 11:30:36;;;;;;;22.50;11.80;;;;;;;25.16;48.61;100776.20;106215;1287;61649;-81
2022/05/31 11:33:29;;;;;;;20.80;11.40;;;;;;;25.17;48.37;100778.45;106179;1287;60264;-79
2022/05/31 11:36:17;;;;;;;19.10;11.60;;;;;;;25.18;48.39;100775.47;105223;1295;71736;-79
2022/05/31 11:38:55;;;;;;;21.40;11.90;;;;;;;25.17;48.57;100773.41;105113;1295;75994;-78
2022/05/31 11:41:39;;;;;;;27.90;11.80;;;;;;;25.16;48.75;100771.89;105375;1295;61160;-80
2022/05/31 11:44:27;;;;;;;22.30;11.50;;;;;;;25.18;48.83;100771.86;105604;1295;62611;-80